sensor_id;sensor_type;location;lat;lon;timestamp;pressure;altitude;pressure_sealevel;temperature;humidity
17785;BME280;9016;53.582;10.062;2023-03-11T00:00:45;99786.59;;;3.03;89.95
17785;BME280;9016;53.582;10.062;2023-03-11T00:03:16;99784.88;;;3.02;90.83
17785;BME280;9016;53.582;10.062;2023-03-11T00:05:45;99790.75;;;2.89;90.47
17785;BME280;9016;53.582;10.062;2023-03-11T00:08:15;99802.06;;;2.91;91.15
17785;BME280;9016;53.582;10.062;2023-03-11T00:10:45;99804.03;;;3.06;90.79
17785;BME280;9016;53.582;10.062;2023-03-11T00:13:15;99815.53;;;3.03;90.25
17785;BME280;9016;53.582;10.062;2023-03-11T00:15:47;99816.06;;;3.12;91.61
17785;BME280;9016;53.582;10.062;2023-03-11T00:18:15;99810.06;;;3.27;90.64
17785;BME280;9016;53.582;10.062;2023-03-11T00:20:44;99824.69;;;3.34;89.75
17785;BME280;9016;53.582;10.062;2023-03-11T00:23:13;99837.34;;;3.26;88.89
17785;BME280;9016;53.582;10.062;2023-03-11T00:25:43;99844.19;;;3.30;89.49
17785;BME280;9016;53.582;10.062;2023-03-11T00:28:12;99847.53;;;3.33;88.60
17785;BME280;9016;53.582;10.062;2023-03-11T00:30:45;99847.88;;;3.26;88.09
17785;BME280;9016;53.582;10.062;2023-03-11T00:33:14;99858.72;;;3.18;89.01
17785;BME280;9016;53.582;10.062;2023-03-11T00:35:42;99858.34;;;3.07;88.39
17785;BME280;9016;53.582;10.062;2023-03-11T00:38:12;99861.56;;;2.93;88.74
17785;BME280;9016;53.582;10.062;2023-03-11T00:40:42;99869.28;;;2.98;90.11
17785;BME280;9016;53.582;10.062;2023-03-11T00:43:11;99865.72;;;2.99;89.89
17785;BME280;9016;53.582;10.062;2023-03-11T00:45:39;99871.13;;;2.96;89.23
17785;BME280;9016;53.582;10.062;2023-03-11T00:48:10;99882.44;;;2.98;89.51
17785;BME280;9016;53.582;10.062;2023-03-11T00:50:39;99884.66;;;3.07;89.78
17785;BME280;9016;53.582;10.062;2023-03-11T00:53:08;99883.72;;;3.08;89.40
17785;BME280;9016;53.582;10.062;2023-03-11T00:55:37;99888.50;;;3.00;88.65
17785;BME280;9016;53.582;10.062;2023-03-11T00:58:07;99897.75;;;3.09;89.35
17785;BME280;9016;53.582;10.062;2023-03-11T01:00:35;99900.13;;;3.15;88.71
17785;BME280;9016;53.582;10.062;2023-03-11T01:03:10;99907.22;;;3.13;88.43
17785;BME280;9016;53.582;10.062;2023-03-11T01:05:39;99915.13;;;3.13;88.83
17785;BME280;9016;53.582;10.062;2023-03-11T01:08:12;99923.66;;;3.18;88.95
17785;BME280;9016;53.582;10.062;2023-03-11T01:10:40;99925.19;;;3.23;89.37
17785;BME280;9016;53.582;10.062;2023-03-11T01:13:09;99923.56;;;3.21;88.87
17785;BME280;9016;53.582;10.062;2023-03-11T01:15:38;99921.63;;;3.24;88.36
17785;BME280;9016;53.582;10.062;2023-03-11T01:18:10;99928.34;;;3.31;87.84
17785;BME280;9016;53.582;10.062;2023-03-11T01:20:39;99929.06;;;3.35;88.66
17785;BME280;9016;53.582;10.062;2023-03-11T01:23:08;99941.66;;;3.28;87.43
17785;BME280;9016;53.582;10.062;2023-03-11T01:25:39;99942.41;;;3.10;87.49
17785;BME280;9016;53.582;10.062;2023-03-11T01:28:10;99945.34;;;3.04;87.93
17785;BME280;9016;53.582;10.062;2023-03-11T01:30:43;99956.19;;;2.96;88.58
17785;BME280;9016;53.582;10.062;2023-03-11T01:33:18;99957.06;;;2.95;89.46
17785;BME280;9016;53.582;10.062;2023-03-11T01:35:46;99955.06;;;3.02;88.88
17785;BME280;9016;53.582;10.062;2023-03-11T01:38:15;99975.09;;;3.04;88.75
17785;BME280;9016;53.582;10.062;2023-03-11T01:40:48;99973.19;;;3.08;88.68
17785;BME280;9016;53.582;10.062;2023-03-11T01:43:45;99976.78;;;3.27;88.35
17785;BME280;9016;53.582;10.062;2023-03-11T01:46:18;99985.00;;;3.20;86.88
17785;BME280;9016;53.582;10.062;2023-03-11T01:48:49;99974.78;;;3.12;86.70
17785;BME280;9016;53.582;10.062;2023-03-11T01:51:23;99987.88;;;3.14;87.48
17785;BME280;9016;53.582;10.062;2023-03-11T01:53:59;99990.59;;;3.12;87.25
17785;BME280;9016;53.582;10.062;2023-03-11T01:56:31;99987.03;;;3.13;87.97
17785;BME280;9016;53.582;10.062;2023-03-11T01:59:01;99982.91;;;3.08;86.73
17785;BME280;9016;53.582;10.062;2023-03-11T02:01:29;99989.41;;;3.19;86.60
17785;BME280;9016;53.582;10.062;2023-03-11T02:04:01;99993.63;;;3.23;87.32
17785;BME280;9016;53.582;10.062;2023-03-11T02:06:31;99994.00;;;3.14;86.01
17785;BME280;9016;53.582;10.062;2023-03-11T02:09:00;100001.56;;;3.01;86.29
17785;BME280;9016;53.582;10.062;2023-03-11T02:11:29;99995.13;;;3.09;86.47
17785;BME280;9016;53.582;10.062;2023-03-11T02:14:01;100009.78;;;3.14;85.59
17785;BME280;9016;53.582;10.062;2023-03-11T02:16:31;100010.31;;;3.02;85.47
17785;BME280;9016;53.582;10.062;2023-03-11T02:19:08;100013.75;;;3.04;87.75
17785;BME280;9016;53.582;10.062;2023-03-11T02:21:39;100026.84;;;3.06;86.63
17785;BME280;9016;53.582;10.062;2023-03-11T02:24:11;100042.31;;;3.13;86.31
17785;BME280;9016;53.582;10.062;2023-03-11T02:26:49;100041.63;;;3.08;86.34
17785;BME280;9016;53.582;10.062;2023-03-11T02:29:20;100053.69;;;3.14;86.28
17785;BME280;9016;53.582;10.062;2023-03-11T02:31:49;100049.72;;;3.03;86.54
17785;BME280;9016;53.582;10.062;2023-03-11T02:34:22;100047.16;;;3.02;85.97
17785;BME280;9016;53.582;10.062;2023-03-11T02:36:51;100049.78;;;3.02;86.37
17785;BME280;9016;53.582;10.062;2023-03-11T02:39:29;100057.56;;;3.05;86.10
17785;BME280;9016;53.582;10.062;2023-03-11T02:41:59;100071.25;;;3.13;84.43
17785;BME280;9016;53.582;10.062;2023-03-11T02:44:29;100081.66;;;2.94;85.22
17785;BME280;9016;53.582;10.062;2023-03-11T02:46:57;100077.06;;;2.99;85.97
17785;BME280;9016;53.582;10.062;2023-03-11T02:49:25;100088.75;;;2.92;84.56
17785;BME280;9016;53.582;10.062;2023-03-11T02:51:53;100092.44;;;2.88;85.45
17785;BME280;9016;53.582;10.062;2023-03-11T02:54:21;100096.59;;;2.94;84.73
17785;BME280;9016;53.582;10.062;2023-03-11T02:56:49;100097.69;;;2.88;85.22
17785;BME280;9016;53.582;10.062;2023-03-11T02:59:19;100108.50;;;2.81;85.25
17785;BME280;9016;53.582;10.062;2023-03-11T03:01:47;100103.44;;;2.76;85.65
17785;BME280;9016;53.582;10.062;2023-03-11T03:04:16;100109.50;;;2.78;86.26
17785;BME280;9016;53.582;10.062;2023-03-11T03:06:44;100110.59;;;2.73;85.86
17785;BME280;9016;53.582;10.062;2023-03-11T03:09:12;100116.97;;;2.66;86.42
17785;BME280;9016;53.582;10.062;2023-03-11T03:11:40;100122.75;;;2.75;86.67
17785;BME280;9016;53.582;10.062;2023-03-11T03:14:08;100122.81;;;2.74;86.06
17785;BME280;9016;53.582;10.062;2023-03-11T03:16:38;100128.16;;;2.72;85.33
17785;BME280;9016;53.582;10.062;2023-03-11T03:19:08;100126.19;;;2.77;84.99
17785;BME280;9016;53.582;10.062;2023-03-11T03:21:38;100142.25;;;2.70;84.88
17785;BME280;9016;53.582;10.062;2023-03-11T03:24:06;100146.09;;;2.61;84.45
17785;BME280;9016;53.582;10.062;2023-03-11T03:26:35;100146.31;;;2.55;85.22
17785;BME280;9016;53.582;10.062;2023-03-11T03:29:04;100158.09;;;2.68;86.03
17785;BME280;9016;53.582;10.062;2023-03-11T03:31:32;100161.53;;;2.70;84.81
17785;BME280;9016;53.582;10.062;2023-03-11T03:34:02;100160.00;;;2.65;83.88
17785;BME280;9016;53.582;10.062;2023-03-11T03:36:30;100172.19;;;2.67;84.16
17785;BME280;9016;53.582;10.062;2023-03-11T03:38:58;100174.56;;;2.73;84.27
17785;BME280;9016;53.582;10.062;2023-03-11T03:41:27;100173.38;;;2.82;83.94
17785;BME280;9016;53.582;10.062;2023-03-11T03:43:57;100182.75;;;2.89;84.57
17785;BME280;9016;53.582;10.062;2023-03-11T03:46:28;100178.38;;;2.88;84.27
17785;BME280;9016;53.582;10.062;2023-03-11T03:48:56;100181.19;;;2.83;83.05
17785;BME280;9016;53.582;10.062;2023-03-11T03:51:26;100200.56;;;2.81;83.17
17785;BME280;9016;53.582;10.062;2023-03-11T03:53:54;100203.34;;;2.78;83.33
17785;BME280;9016;53.582;10.062;2023-03-11T03:56:22;100208.66;;;2.76;85.44
17785;BME280;9016;53.582;10.062;2023-03-11T03:58:52;100207.03;;;2.95;84.02
17785;BME280;9016;53.582;10.062;2023-03-11T04:01:20;100212.09;;;2.78;83.74
17785;BME280;9016;53.582;10.062;2023-03-11T04:03:48;100213.19;;;2.71;84.29
17785;BME280;9016;53.582;10.062;2023-03-11T04:06:18;100217.72;;;2.68;85.15
17785;BME280;9016;53.582;10.062;2023-03-11T04:08:49;100225.19;;;2.80;84.88
17785;BME280;9016;53.582;10.062;2023-03-11T04:11:19;100224.53;;;2.73;84.30
17785;BME280;9016;53.582;10.062;2023-03-11T04:13:47;100226.06;;;2.79;84.72
17785;BME280;9016;53.582;10.062;2023-03-11T04:16:18;100224.53;;;2.73;83.73
17785;BME280;9016;53.582;10.062;2023-03-11T04:18:48;100232.53;;;2.70;84.03
17785;BME280;9016;53.582;10.062;2023-03-11T04:21:16;100233.00;;;2.81;84.10
17785;BME280;9016;53.582;10.062;2023-03-11T04:23:44;100237.88;;;2.92;83.63
17785;BME280;9016;53.582;10.062;2023-03-11T04:26:13;100233.25;;;2.98;84.08
17785;BME280;9016;53.582;10.062;2023-03-11T04:28:41;100244.16;;;2.88;83.42
17785;BME280;9016;53.582;10.062;2023-03-11T04:31:10;100240.16;;;2.78;83.00
17785;BME280;9016;53.582;10.062;2023-03-11T04:33:38;100237.69;;;2.73;83.74
17785;BME280;9016;53.582;10.062;2023-03-11T04:36:08;100233.22;;;2.75;83.91
17785;BME280;9016;53.582;10.062;2023-03-11T04:38:36;100236.22;;;2.89;84.51
17785;BME280;9016;53.582;10.062;2023-03-11T04:41:05;100237.81;;;2.93;82.72
17785;BME280;9016;53.582;10.062;2023-03-11T04:43:35;100240.22;;;2.99;82.68
17785;BME280;9016;53.582;10.062;2023-03-11T04:46:03;100235.75;;;3.01;82.97
17785;BME280;9016;53.582;10.062;2023-03-11T04:48:32;100242.16;;;2.94;81.38
17785;BME280;9016;53.582;10.062;2023-03-11T04:50:59;100252.50;;;2.76;82.24
17785;BME280;9016;53.582;10.062;2023-03-11T04:53:28;100251.69;;;2.74;81.49
17785;BME280;9016;53.582;10.062;2023-03-11T04:55:56;100259.06;;;2.64;82.21
17785;BME280;9016;53.582;10.062;2023-03-11T04:58:26;100262.38;;;2.69;83.43
17785;BME280;9016;53.582;10.062;2023-03-11T05:00:56;100263.44;;;2.64;83.35
17785;BME280;9016;53.582;10.062;2023-03-11T05:03:24;100267.06;;;2.61;83.49
17785;BME280;9016;53.582;10.062;2023-03-11T05:05:52;100273.13;;;2.63;83.51
17785;BME280;9016;53.582;10.062;2023-03-11T05:08:22;100289.19;;;2.56;83.43
17785;BME280;9016;53.582;10.062;2023-03-11T05:10:51;100283.06;;;2.55;83.98
17785;BME280;9016;53.582;10.062;2023-03-11T05:13:20;100287.25;;;2.61;83.60
17785;BME280;9016;53.582;10.062;2023-03-11T05:15:48;100300.50;;;2.58;83.23
17785;BME280;9016;53.582;10.062;2023-03-11T05:18:17;100299.00;;;2.51;83.46
17785;BME280;9016;53.582;10.062;2023-03-11T05:20:46;100310.16;;;2.57;83.63
17785;BME280;9016;53.582;10.062;2023-03-11T05:23:14;100318.63;;;2.41;83.38
17785;BME280;9016;53.582;10.062;2023-03-11T05:25:42;100326.38;;;2.45;84.05
17785;BME280;9016;53.582;10.062;2023-03-11T05:28:10;100324.56;;;2.46;83.10
17785;BME280;9016;53.582;10.062;2023-03-11T05:30:38;100325.69;;;2.39;83.39
17785;BME280;9016;53.582;10.062;2023-03-11T05:33:06;100334.53;;;2.36;84.12
17785;BME280;9016;53.582;10.062;2023-03-11T05:35:35;100341.78;;;2.30;83.39
17785;BME280;9016;53.582;10.062;2023-03-11T05:38:04;100343.47;;;2.32;84.32
17785;BME280;9016;53.582;10.062;2023-03-11T05:40:32;100344.47;;;2.28;83.63
17785;BME280;9016;53.582;10.062;2023-03-11T05:42:59;100352.41;;;2.27;83.55
17785;BME280;9016;53.582;10.062;2023-03-11T05:45:28;100356.91;;;2.23;84.06
17785;BME280;9016;53.582;10.062;2023-03-11T05:47:56;100360.59;;;2.18;83.13
17785;BME280;9016;53.582;10.062;2023-03-11T05:50:23;100366.91;;;2.12;84.12
17785;BME280;9016;53.582;10.062;2023-03-11T05:52:53;100368.56;;;2.15;83.45
17785;BME280;9016;53.582;10.062;2023-03-11T05:55:21;100359.97;;;2.10;83.49
17785;BME280;9016;53.582;10.062;2023-03-11T05:57:50;100372.41;;;2.03;83.08
17785;BME280;9016;53.582;10.062;2023-03-11T06:00:18;100382.16;;;1.99;83.71
17785;BME280;9016;53.582;10.062;2023-03-11T06:02:46;100379.13;;;2.13;84.41
17785;BME280;9016;53.582;10.062;2023-03-11T06:05:15;100392.56;;;2.04;83.79
17785;BME280;9016;53.582;10.062;2023-03-11T06:07:43;100392.91;;;1.92;83.70
17785;BME280;9016;53.582;10.062;2023-03-11T06:10:12;100391.38;;;1.85;84.56
17785;BME280;9016;53.582;10.062;2023-03-11T06:12:40;100398.69;;;1.75;84.04
17785;BME280;9016;53.582;10.062;2023-03-11T06:15:09;100398.72;;;1.74;83.75
17785;BME280;9016;53.582;10.062;2023-03-11T06:17:37;100400.41;;;1.76;84.07
17785;BME280;9016;53.582;10.062;2023-03-11T06:20:06;100400.25;;;1.81;84.20
17785;BME280;9016;53.582;10.062;2023-03-11T06:22:35;100402.63;;;1.90;83.67
17785;BME280;9016;53.582;10.062;2023-03-11T06:25:06;100418.19;;;1.96;82.39
17785;BME280;9016;53.582;10.062;2023-03-11T06:27:36;100422.56;;;1.97;82.36
17785;BME280;9016;53.582;10.062;2023-03-11T06:30:04;100422.56;;;1.97;82.05
17785;BME280;9016;53.582;10.062;2023-03-11T06:32:32;100421.56;;;2.01;81.88
17785;BME280;9016;53.582;10.062;2023-03-11T06:35:03;100426.59;;;2.07;81.17
17785;BME280;9016;53.582;10.062;2023-03-11T06:37:34;100426.72;;;2.04;80.91
17785;BME280;9016;53.582;10.062;2023-03-11T06:40:02;100434.81;;;1.96;81.13
17785;BME280;9016;53.582;10.062;2023-03-11T06:42:33;100441.66;;;2.02;82.72
17785;BME280;9016;53.582;10.062;2023-03-11T06:45:02;100447.34;;;2.16;82.06
17785;BME280;9016;53.582;10.062;2023-03-11T06:47:31;100449.84;;;2.21;81.05
17785;BME280;9016;53.582;10.062;2023-03-11T06:49:59;100455.28;;;2.15;80.66
17785;BME280;9016;53.582;10.062;2023-03-11T06:52:31;100460.81;;;2.06;80.82
17785;BME280;9016;53.582;10.062;2023-03-11T06:54:59;100464.97;;;2.13;81.56
17785;BME280;9016;53.582;10.062;2023-03-11T06:57:29;100470.38;;;2.08;80.54
17785;BME280;9016;53.582;10.062;2023-03-11T06:59:57;100468.25;;;2.21;82.73
17785;BME280;9016;53.582;10.062;2023-03-11T07:02:26;100477.97;;;2.17;81.55
17785;BME280;9016;53.582;10.062;2023-03-11T07:04:54;100482.97;;;2.26;81.00
17785;BME280;9016;53.582;10.062;2023-03-11T07:07:22;100487.34;;;2.26;80.73
17785;BME280;9016;53.582;10.062;2023-03-11T07:09:53;100490.31;;;2.15;81.00
17785;BME280;9016;53.582;10.062;2023-03-11T07:12:22;100487.56;;;2.18;81.12
17785;BME280;9016;53.582;10.062;2023-03-11T07:14:53;100496.09;;;2.26;81.47
17785;BME280;9016;53.582;10.062;2023-03-11T07:17:22;100497.72;;;2.30;81.23
17785;BME280;9016;53.582;10.062;2023-03-11T07:19:52;100496.88;;;2.30;80.59
17785;BME280;9016;53.582;10.062;2023-03-11T07:22:20;100501.19;;;2.31;81.20
17785;BME280;9016;53.582;10.062;2023-03-11T07:24:48;100504.81;;;2.28;81.17
17785;BME280;9016;53.582;10.062;2023-03-11T07:27:16;100505.50;;;2.33;80.98
17785;BME280;9016;53.582;10.062;2023-03-11T07:29:45;100510.06;;;2.28;81.93
17785;BME280;9016;53.582;10.062;2023-03-11T07:32:13;100512.69;;;2.28;82.10
17785;BME280;9016;53.582;10.062;2023-03-11T07:34:42;100524.31;;;2.49;82.03
17785;BME280;9016;53.582;10.062;2023-03-11T07:37:11;100517.03;;;2.57;80.79
17785;BME280;9016;53.582;10.062;2023-03-11T07:39:39;100525.63;;;2.63;80.26
17785;BME280;9016;53.582;10.062;2023-03-11T07:42:07;100527.31;;;2.64;80.74
17785;BME280;9016;53.582;10.062;2023-03-11T07:44:36;100534.25;;;2.67;80.03
17785;BME280;9016;53.582;10.062;2023-03-11T07:47:04;100534.78;;;2.78;80.20
17785;BME280;9016;53.582;10.062;2023-03-11T07:49:32;100550.31;;;2.85;79.77
17785;BME280;9016;53.582;10.062;2023-03-11T07:52:00;100544.97;;;2.88;79.52
17785;BME280;9016;53.582;10.062;2023-03-11T07:54:30;100548.41;;;2.90;80.29
17785;BME280;9016;53.582;10.062;2023-03-11T07:56:58;100551.44;;;3.04;79.87
17785;BME280;9016;53.582;10.062;2023-03-11T07:59:26;100560.31;;;3.02;79.04
17785;BME280;9016;53.582;10.062;2023-03-11T08:01:54;100569.63;;;3.12;78.06
17785;BME280;9016;53.582;10.062;2023-03-11T08:04:23;100570.69;;;3.07;77.16
17785;BME280;9016;53.582;10.062;2023-03-11T08:06:51;100573.94;;;3.15;78.58
17785;BME280;9016;53.582;10.062;2023-03-11T08:09:18;100567.72;;;3.17;77.12
17785;BME280;9016;53.582;10.062;2023-03-11T08:11:48;100585.03;;;3.24;76.47
17785;BME280;9016;53.582;10.062;2023-03-11T08:14:16;100581.63;;;3.21;77.80
17785;BME280;9016;53.582;10.062;2023-03-11T08:16:44;100593.63;;;3.29;76.28
17785;BME280;9016;53.582;10.062;2023-03-11T08:19:13;100595.00;;;3.41;76.51
17785;BME280;9016;53.582;10.062;2023-03-11T08:21:45;100600.09;;;3.45;76.24
17785;BME280;9016;53.582;10.062;2023-03-11T08:24:15;100605.88;;;3.56;76.72
17785;BME280;9016;53.582;10.062;2023-03-11T08:26:43;100610.31;;;3.54;74.95
17785;BME280;9016;53.582;10.062;2023-03-11T08:29:13;100615.69;;;3.51;73.96
17785;BME280;9016;53.582;10.062;2023-03-11T08:31:41;100619.78;;;3.60;73.82
17785;BME280;9016;53.582;10.062;2023-03-11T08:34:13;100613.31;;;3.70;74.05
17785;BME280;9016;53.582;10.062;2023-03-11T08:36:43;100618.38;;;3.76;72.76
17785;BME280;9016;53.582;10.062;2023-03-11T08:39:11;100618.63;;;3.68;73.43
17785;BME280;9016;53.582;10.062;2023-03-11T08:41:39;100629.31;;;3.64;72.41
17785;BME280;9016;53.582;10.062;2023-03-11T08:44:07;100638.69;;;3.72;72.55
17785;BME280;9016;53.582;10.062;2023-03-11T08:46:37;100631.69;;;3.71;71.63
17785;BME280;9016;53.582;10.062;2023-03-11T08:49:05;100636.59;;;3.82;71.77
17785;BME280;9016;53.582;10.062;2023-03-11T08:51:34;100640.09;;;3.82;70.29
17785;BME280;9016;53.582;10.062;2023-03-11T08:54:03;100643.41;;;3.87;70.47
17785;BME280;9016;53.582;10.062;2023-03-11T08:56:31;100647.41;;;3.99;71.04
17785;BME280;9016;53.582;10.062;2023-03-11T08:58:59;100648.16;;;4.02;70.30
17785;BME280;9016;53.582;10.062;2023-03-11T09:01:27;100649.97;;;4.02;70.37
17785;BME280;9016;53.582;10.062;2023-03-11T09:03:56;100658.78;;;4.01;69.67
17785;BME280;9016;53.582;10.062;2023-03-11T09:09:47;100645.94;;;6.53;65.85
17785;BME280;9016;53.582;10.062;2023-03-11T09:12:16;100641.34;;;8.18;62.29
17785;BME280;9016;53.582;10.062;2023-03-11T09:14:46;100644.41;;;8.92;54.56
17785;BME280;9016;53.582;10.062;2023-03-11T09:17:15;100641.34;;;8.18;54.15
17785;BME280;9016;53.582;10.062;2023-03-11T09:19:44;100656.25;;;8.03;56.10
17785;BME280;9016;53.582;10.062;2023-03-11T09:22:12;100653.16;;;9.26;56.85
17785;BME280;9016;53.582;10.062;2023-03-11T09:24:40;100651.09;;;10.21;52.43
17785;BME280;9016;53.582;10.062;2023-03-11T09:27:09;100654.38;;;10.68;50.43
17785;BME280;9016;53.582;10.062;2023-03-11T09:29:38;100656.66;;;10.74;48.70
17785;BME280;9016;53.582;10.062;2023-03-11T09:32:07;100659.88;;;10.37;48.19
17785;BME280;9016;53.582;10.062;2023-03-11T09:34:38;100663.47;;;9.77;48.78
17785;BME280;9016;53.582;10.062;2023-03-11T09:37:14;100669.09;;;8.94;48.48
17785;BME280;9016;53.582;10.062;2023-03-11T09:39:45;100671.41;;;8.18;52.28
17785;BME280;9016;53.582;10.062;2023-03-11T09:42:19;100676.13;;;7.77;54.61
17785;BME280;9016;53.582;10.062;2023-03-11T09:44:55;100675.31;;;7.41;54.04
17785;BME280;9016;53.582;10.062;2023-03-11T09:47:37;100683.56;;;6.98;55.12
17785;BME280;9016;53.582;10.062;2023-03-11T09:50:19;100688.75;;;6.42;56.59
17785;BME280;9016;53.582;10.062;2023-03-11T09:52:57;100692.59;;;6.35;59.97
17785;BME280;9016;53.582;10.062;2023-03-11T09:55:33;100689.56;;;6.24;58.66
17785;BME280;9016;53.582;10.062;2023-03-11T09:58:15;100687.50;;;6.11;58.89
17785;BME280;9016;53.582;10.062;2023-03-11T10:00:49;100689.09;;;5.94;59.99
17785;BME280;9016;53.582;10.062;2023-03-11T10:03:36;100696.91;;;5.97;60.49
17785;BME280;9016;53.582;10.062;2023-03-11T10:06:13;100690.63;;;6.00;60.07
17785;BME280;9016;53.582;10.062;2023-03-11T10:08:45;100694.66;;;6.09;60.15
17785;BME280;9016;53.582;10.062;2023-03-11T10:11:31;100700.16;;;6.24;60.56
17785;BME280;9016;53.582;10.062;2023-03-11T10:14:11;100699.97;;;6.29;58.54
17785;BME280;9016;53.582;10.062;2023-03-11T10:16:46;100707.69;;;6.33;59.64
17785;BME280;9016;53.582;10.062;2023-03-11T10:19:26;100709.03;;;6.43;60.03
17785;BME280;9016;53.582;10.062;2023-03-11T10:22:04;100707.88;;;6.49;59.25
17785;BME280;9016;53.582;10.062;2023-03-11T10:24:56;100700.03;;;6.47;58.79
17785;BME280;9016;53.582;10.062;2023-03-11T10:27:30;100698.34;;;6.45;59.70
17785;BME280;9016;53.582;10.062;2023-03-11T10:30:22;100714.03;;;6.49;59.68
17785;BME280;9016;53.582;10.062;2023-03-11T10:32:55;100697.47;;;6.64;58.42
17785;BME280;9016;53.582;10.062;2023-03-11T10:35:33;100705.50;;;6.81;58.31
17785;BME280;9016;53.582;10.062;2023-03-11T10:38:10;100709.44;;;6.73;58.05
17785;BME280;9016;53.582;10.062;2023-03-11T10:40:46;100710.00;;;6.79;58.08
17785;BME280;9016;53.582;10.062;2023-03-11T10:43:24;100711.88;;;6.77;57.62
17785;BME280;9016;53.582;10.062;2023-03-11T10:45:55;100710.59;;;6.67;58.32
17785;BME280;9016;53.582;10.062;2023-03-11T10:48:31;100699.00;;;6.88;58.35
17785;BME280;9016;53.582;10.062;2023-03-11T10:51:11;100706.81;;;6.91;57.62
17785;BME280;9016;53.582;10.062;2023-03-11T10:53:50;100712.13;;;6.91;59.20
17785;BME280;9016;53.582;10.062;2023-03-11T10:56:32;100710.09;;;6.78;56.94
17785;BME280;9016;53.582;10.062;2023-03-11T10:59:03;100715.09;;;6.65;57.93
17785;BME280;9016;53.582;10.062;2023-03-11T11:01:31;100720.94;;;6.72;59.02
17785;BME280;9016;53.582;10.062;2023-03-11T11:04:24;100719.59;;;6.63;59.56
17785;BME280;9016;53.582;10.062;2023-03-11T11:06:57;100710.84;;;6.61;59.70
17785;BME280;9016;53.582;10.062;2023-03-11T11:09:26;100718.06;;;6.58;59.45
17785;BME280;9016;53.582;10.062;2023-03-11T11:12:03;100711.31;;;6.51;60.00
17785;BME280;9016;53.582;10.062;2023-03-11T11:14:47;100710.13;;;6.58;59.49
17785;BME280;9016;53.582;10.062;2023-03-11T11:17:20;100722.88;;;6.68;60.53
17785;BME280;9016;53.582;10.062;2023-03-11T11:19:51;100712.88;;;6.75;61.36
17785;BME280;9016;53.582;10.062;2023-03-11T11:22:21;100715.72;;;6.70;61.05
17785;BME280;9016;53.582;10.062;2023-03-11T11:24:51;100711.03;;;6.95;61.06
17785;BME280;9016;53.582;10.062;2023-03-11T11:27:23;100710.91;;;6.98;60.62
17785;BME280;9016;53.582;10.062;2023-03-11T11:30:12;100709.59;;;6.88;60.88
17785;BME280;9016;53.582;10.062;2023-03-11T11:32:40;100711.06;;;6.75;60.37
17785;BME280;9016;53.582;10.062;2023-03-11T11:35:11;100711.06;;;6.75;61.35
17785;BME280;9016;53.582;10.062;2023-03-11T11:37:41;100704.28;;;6.88;61.50
17785;BME280;9016;53.582;10.062;2023-03-11T11:40:20;100710.63;;;6.86;61.28
17785;BME280;9016;53.582;10.062;2023-03-11T11:42:56;100698.63;;;6.77;62.03
17785;BME280;9016;53.582;10.062;2023-03-11T11:45:35;100693.59;;;6.91;61.06
17785;BME280;9016;53.582;10.062;2023-03-11T11:48:11;100708.81;;;6.86;61.56
17785;BME280;9016;53.582;10.062;2023-03-11T11:50:43;100709.53;;;6.90;60.80
17785;BME280;9016;53.582;10.062;2023-03-11T11:53:24;100701.38;;;7.13;61.25
17785;BME280;9016;53.582;10.062;2023-03-11T11:55:55;100697.88;;;7.13;60.17
17785;BME280;9016;53.582;10.062;2023-03-11T11:58:24;100694.16;;;6.98;59.22
17785;BME280;9016;53.582;10.062;2023-03-11T12:01:04;100694.94;;;7.00;58.65
17785;BME280;9016;53.582;10.062;2023-03-11T12:03:48;100688.50;;;7.06;59.66
17785;BME280;9016;53.582;10.062;2023-03-11T12:06:29;100689.13;;;7.11;58.49
17785;BME280;9016;53.582;10.062;2023-03-11T12:09:11;100685.25;;;7.18;56.30
17785;BME280;9016;53.582;10.062;2023-03-11T12:11:50;100697.06;;;7.29;57.97
17785;BME280;9016;53.582;10.062;2023-03-11T12:14:30;100699.53;;;7.34;56.82
17785;BME280;9016;53.582;10.062;2023-03-11T12:17:05;100690.34;;;7.41;57.16
17785;BME280;9016;53.582;10.062;2023-03-11T12:19:39;100693.63;;;7.27;55.71
17785;BME280;9016;53.582;10.062;2023-03-11T12:22:35;100687.06;;;7.17;55.80
17785;BME280;9016;53.582;10.062;2023-03-11T12:25:17;100684.25;;;7.20;54.92
17785;BME280;9016;53.582;10.062;2023-03-11T12:27:51;100689.59;;;7.56;56.22
17785;BME280;9016;53.582;10.062;2023-03-11T12:30:25;100677.63;;;8.17;55.39
17785;BME280;9016;53.582;10.062;2023-03-11T12:33:05;100668.72;;;8.52;54.64
17785;BME280;9016;53.582;10.062;2023-03-11T12:35:37;100673.22;;;8.67;53.69
17785;BME280;9016;53.582;10.062;2023-03-11T12:38:15;100678.66;;;8.81;51.13
17785;BME280;9016;53.582;10.062;2023-03-11T12:40:48;100674.28;;;8.48;50.99
17785;BME280;9016;53.582;10.062;2023-03-11T12:43:25;100682.34;;;8.46;49.61
17785;BME280;9016;53.582;10.062;2023-03-11T12:45:57;100679.00;;;8.43;48.83
17785;BME280;9016;53.582;10.062;2023-03-11T12:48:41;100683.75;;;8.36;49.25
17785;BME280;9016;53.582;10.062;2023-03-11T12:51:42;100682.72;;;8.22;49.81
17785;BME280;9016;53.582;10.062;2023-03-11T12:54:28;100673.88;;;8.21;50.53
17785;BME280;9016;53.582;10.062;2023-03-11T12:56:59;100680.63;;;8.28;51.11
17785;BME280;9016;53.582;10.062;2023-03-11T13:03:00;100688.66;;;8.44;50.95
17785;BME280;9016;53.582;10.062;2023-03-11T13:05:49;100685.69;;;8.50;50.25
17785;BME280;9016;53.582;10.062;2023-03-11T13:08:20;100683.16;;;8.47;51.44
17785;BME280;9016;53.582;10.062;2023-03-11T13:10:50;100686.13;;;8.58;51.38
17785;BME280;9016;53.582;10.062;2023-03-11T13:13:29;100686.97;;;8.75;50.55
17785;BME280;9016;53.582;10.062;2023-03-11T13:16:35;100692.66;;;8.85;49.93
17785;BME280;9016;53.582;10.062;2023-03-11T13:19:33;100696.19;;;8.68;49.68
17785;BME280;9016;53.582;10.062;2023-03-11T13:22:03;100699.50;;;8.22;51.20
17785;BME280;9016;53.582;10.062;2023-03-11T13:24:40;100697.94;;;8.01;51.97
17785;BME280;9016;53.582;10.062;2023-03-11T13:27:27;100689.50;;;8.10;52.73
17785;BME280;9016;53.582;10.062;2023-03-11T13:30:05;100691.06;;;8.14;52.39
17785;BME280;9016;53.582;10.062;2023-03-11T13:32:56;100687.94;;;8.06;52.99